In Rescue
 
Open Full Screen Window  High Contrast Mode
Wind Gusting 00 knots
10
January 19, 2019 6:09 AM CDT
Weather Information
Wind Direction
  310 °
Wind Speed
  10 kt (12 mph)
Wind Gust
  00 kt (0 mph)
Altimeter
30.37 in
Visibility
10 SM
Temperature
-22° C
-7° F
Dewpoint
-25° C
-12° F
Humidity
77%
1hr Rain Fall
00.00 in.
24hr Rain Fall
00.00 in.
Sky Condition
Missing
VFR

METAR KJYG 191109Z AUTO 31010KT 10SM M22/M25 A3037 RMK AO2

FAA Disclaimer: The data displayed is for advisory purposes only and is not to be used for flight planning or operations.
Missing Cloud Data